createdAt,value
2018-09-30T00:03:21.444Z,97313.59
2018-09-30T00:08:16.077Z,97312.63
2018-09-30T00:13:10.581Z,97316.44
2018-09-30T00:18:05.154Z,97318.87
2018-09-30T00:22:59.680Z,97318.35
2018-09-30T00:27:54.196Z,97319.48
2018-09-30T00:32:48.695Z,97313.45
2018-09-30T00:37:43.188Z,97313.32
2018-09-30T00:42:37.840Z,97316.69
2018-09-30T00:47:32.521Z,97311.27
2018-09-30T00:52:27.046Z,97303.81
2018-09-30T00:57:21.852Z,97303.11
2018-09-30T01:02:16.401Z,97302.33
2018-09-30T01:07:11.099Z,97308.85
2018-09-30T01:12:05.798Z,97303.94
2018-09-30T01:17:00.523Z,97295.55
2018-09-30T01:21:55.113Z,97296.19
2018-09-30T01:26:49.812Z,97299.89
2018-09-30T01:31:44.356Z,97301.09
2018-09-30T01:36:38.879Z,97289.44
2018-09-30T01:41:33.538Z,97287.92
2018-09-30T01:46:28.138Z,97286.70
2018-09-30T01:51:23.005Z,97289.12
2018-09-30T01:56:17.539Z,97299.08
2018-09-30T02:01:12.020Z,97292.10
2018-09-30T02:06:06.160Z,97299.95
2018-09-30T02:11:00.720Z,97294.64
2018-09-30T02:15:55.408Z,97301.42
2018-09-30T02:20:49.938Z,97287.95
2018-09-30T02:25:44.432Z,97290.94
2018-09-30T02:30:39.108Z,97294.66
2018-09-30T02:35:33.584Z,97294.27
2018-09-30T02:40:28.088Z,97291.11
2018-09-30T02:45:22.726Z,97296.32
2018-09-30T02:50:17.715Z,97296.13
2018-09-30T02:55:12.276Z,97292.30
2018-09-30T03:00:07.125Z,97284.56
2018-09-30T03:05:01.617Z,97291.67
2018-09-30T03:09:56.291Z,97281.28
2018-09-30T03:14:50.803Z,97279.31
2018-09-30T03:19:45.313Z,97273.98
2018-09-30T03:24:39.877Z,97280.03
2018-09-30T03:29:34.448Z,97277.11
2018-09-30T03:34:28.948Z,97277.06
2018-09-30T03:39:23.603Z,97270.84
2018-09-30T03:44:18.109Z,97266.67
2018-09-30T03:49:12.579Z,97265.20
2018-09-30T03:54:07.043Z,97263.73
2018-09-30T03:59:01.580Z,97271.03
2018-09-30T04:03:56.218Z,97260.22
2018-09-30T04:08:50.725Z,97258.51
2018-09-30T04:13:45.293Z,97255.46
2018-09-30T04:18:39.853Z,97246.80
2018-09-30T04:23:34.427Z,97250.92
2018-09-30T04:28:28.987Z,97240.58
2018-09-30T04:33:23.476Z,97239.47
2018-09-30T04:38:18.059Z,97232.89
2018-09-30T04:43:12.569Z,97233.56
2018-09-30T04:48:07.272Z,97226.30
2018-09-30T04:53:01.753Z,97222.08
2018-09-30T04:57:56.280Z,97229.68
2018-09-30T05:02:50.846Z,97222.53
2018-09-30T05:07:45.364Z,97230.98
2018-09-30T05:12:40.058Z,97226.50
2018-09-30T05:17:34.600Z,97224.86
2018-09-30T05:22:29.152Z,97227.30
2018-09-30T05:27:23.810Z,97228.41
2018-09-30T05:32:18.535Z,97225.43
2018-09-30T05:37:13.118Z,97225.75
2018-09-30T05:42:07.551Z,97231.77
2018-09-30T05:47:02.036Z,97226.15
2018-09-30T05:51:56.528Z,97228.63
2018-09-30T05:56:50.981Z,97214.47
2018-09-30T06:01:45.443Z,97217.48
2018-09-30T06:06:40.096Z,97218.16
2018-09-30T06:11:34.590Z,97225.23
2018-09-30T06:16:29.080Z,97213.05
2018-09-30T06:21:23.592Z,97215.61
2018-09-30T06:26:18.156Z,97219.67
2018-09-30T06:31:12.629Z,97220.91
2018-09-30T06:36:07.121Z,97223.80
2018-09-30T06:41:01.630Z,97223.92
2018-09-30T06:45:56.200Z,97228.89
2018-09-30T06:50:50.832Z,97234.02
2018-09-30T06:55:45.194Z,97231.97
2018-09-30T07:00:40.101Z,97227.98
2018-09-30T07:05:34.687Z,97225.48
2018-09-30T07:10:29.189Z,97220.98
2018-09-30T07:15:23.921Z,97219.96
2018-09-30T07:20:18.530Z,97219.96
2018-09-30T07:25:13.156Z,97215.65
2018-09-30T07:30:07.742Z,97216.91
2018-09-30T07:35:02.258Z,97215.50
2018-09-30T07:39:56.813Z,97220.82
2018-09-30T07:44:52.085Z,97214.78
2018-09-30T07:49:46.854Z,97212.17
2018-09-30T07:54:41.475Z,97205.78
2018-09-30T07:59:36.089Z,97198.95
2018-09-30T08:04:30.644Z,97198.69
2018-09-30T08:09:25.164Z,97200.98
2018-09-30T08:14:19.721Z,97196.55
2018-09-30T08:19:14.218Z,97189.88
2018-09-30T08:24:08.819Z,97184.78
2018-09-30T08:29:03.334Z,97192.20
2018-09-30T08:33:58.092Z,97184.06
2018-09-30T08:38:52.687Z,97188.02
2018-09-30T08:43:48.244Z,97192.27
2018-09-30T08:48:42.679Z,97189.29
2018-09-30T08:53:37.240Z,97176.95
2018-09-30T08:58:31.865Z,97177.19
2018-09-30T09:03:27.093Z,97181.41
2018-09-30T09:08:21.824Z,97169.00
2018-09-30T09:13:16.364Z,97160.39
2018-09-30T09:18:10.987Z,97155.92
2018-09-30T09:23:05.532Z,97151.57
2018-09-30T09:28:00.668Z,97145.22
2018-09-30T09:32:55.557Z,97141.42
2018-09-30T09:37:50.168Z,97133.56
2018-09-30T09:42:44.661Z,97134.47
2018-09-30T09:47:39.172Z,97131.66
2018-09-30T09:52:33.639Z,97123.98
2018-09-30T09:57:28.256Z,97114.00
2018-09-30T10:02:22.767Z,97105.09
2018-09-30T10:07:17.356Z,97098.20
2018-09-30T10:12:12.052Z,97098.58
2018-09-30T10:17:06.580Z,97087.75
2018-09-30T10:22:01.214Z,97080.02
2018-09-30T10:26:55.873Z,97069.31
2018-09-30T10:31:50.377Z,97059.64
2018-09-30T10:36:45.133Z,97057.45
2018-09-30T10:41:40.437Z,97047.73
2018-09-30T10:46:34.976Z,97044.55
2018-09-30T10:51:29.968Z,97028.21
2018-09-30T10:56:25.724Z,97027.54
2018-09-30T11:01:20.500Z,97024.20
2018-09-30T11:06:15.308Z,97017.02
2018-09-30T11:11:09.996Z,97003.28
2018-09-30T11:16:04.536Z,96999.78
2018-09-30T11:20:59.247Z,96976.49
2018-09-30T11:25:53.998Z,96986.03
2018-09-30T11:30:48.754Z,96968.31
2018-09-30T11:35:43.536Z,96957.98
2018-09-30T11:40:38.390Z,96946.86
2018-09-30T11:45:32.974Z,96944.17
2018-09-30T11:50:27.634Z,96938.08
2018-09-30T11:55:22.237Z,96925.64
2018-09-30T12:00:16.950Z,96912.88
2018-09-30T12:05:12.168Z,96907.31
2018-09-30T12:10:06.869Z,96898.32
2018-09-30T12:15:01.382Z,96894.33
2018-09-30T12:19:55.885Z,96880.55
2018-09-30T12:24:50.993Z,96880.55
2018-09-30T12:29:46.115Z,96863.77
2018-09-30T12:34:40.688Z,96852.30
2018-09-30T12:39:35.286Z,96841.57
2018-09-30T12:44:29.792Z,96834.66
2018-09-30T12:49:24.621Z,96836.74
2018-09-30T12:54:19.557Z,96836.49
2018-09-30T12:59:14.376Z,96825.25
2018-09-30T13:04:10.261Z,96822.52
2018-09-30T13:09:06.738Z,96820.38
2018-09-30T13:14:01.459Z,96811.98
2018-09-30T13:18:56.144Z,96806.55
2018-09-30T13:23:51.252Z,96801.70
2018-09-30T13:28:45.764Z,96800.18
2018-09-30T13:33:40.385Z,96793.44
2018-09-30T13:38:35.311Z,96794.20
2018-09-30T13:43:29.949Z,96786.84
2018-09-30T13:48:24.987Z,96779.24
2018-09-30T13:53:19.514Z,96766.22
2018-09-30T13:58:14.354Z,96761.26
2018-09-30T14:03:09.055Z,96752.84
2018-09-30T14:08:03.857Z,96748.06
2018-09-30T14:12:58.516Z,96745.59
2018-09-30T14:17:53.133Z,96737.50
2018-09-30T14:22:48.091Z,96735.23
2018-09-30T14:27:42.886Z,96725.31
2018-09-30T14:32:38.396Z,96719.73
2018-09-30T14:37:33.629Z,96720.88
2018-09-30T14:42:28.409Z,96723.81
2018-09-30T14:47:23.232Z,96722.51
2018-09-30T14:52:17.772Z,96722.18
2018-09-30T14:57:12.469Z,96720.35
2018-09-30T15:02:07.496Z,96705.48
2018-09-30T15:07:02.185Z,96702.11
2018-09-30T15:11:56.994Z,96705.38
2018-09-30T15:16:51.578Z,96701.36
2018-09-30T15:21:46.245Z,96696.29
2018-09-30T15:26:40.796Z,96687.13
2018-09-30T15:31:35.545Z,96679.78
2018-09-30T15:36:30.078Z,96678.64
2018-09-30T15:41:24.789Z,96669.80
2018-09-30T15:46:19.381Z,96663.82
2018-09-30T15:51:13.968Z,96659.98
2018-09-30T15:56:09.094Z,96664.85
2018-09-30T16:01:03.787Z,96658.93
2018-09-30T16:05:58.335Z,96656.09
2018-09-30T16:10:53.053Z,96652.42
2018-09-30T16:15:47.773Z,96649.57
2018-09-30T16:20:43.566Z,96649.59
2018-09-30T16:25:38.048Z,96649.64
2018-09-30T16:30:32.541Z,96648.66
2018-09-30T16:35:27.150Z,96645.86
2018-09-30T16:40:21.741Z,96647.27
2018-09-30T16:45:16.285Z,96644.98
2018-09-30T16:50:10.869Z,96645.56
2018-09-30T16:55:05.772Z,96640.05
2018-09-30T17:00:00.385Z,96642.48
2018-09-30T17:04:54.926Z,96644.63
2018-09-30T17:09:49.456Z,96640.16
2018-09-30T17:14:43.946Z,96638.88
2018-09-30T17:19:38.443Z,96644.47
2018-09-30T17:24:33.033Z,96644.26
2018-09-30T17:29:27.604Z,96644.52
2018-09-30T17:34:22.242Z,96647.16
2018-09-30T17:39:16.772Z,96650.36
2018-09-30T17:44:11.388Z,96651.42
2018-09-30T17:49:05.960Z,96652.48
2018-09-30T17:54:00.528Z,96653.00
2018-09-30T17:58:55.196Z,96658.53
2018-09-30T18:03:49.736Z,96655.34
2018-09-30T18:08:44.300Z,96643.42
2018-09-30T18:13:38.789Z,96640.81
2018-09-30T18:18:33.398Z,96646.11
2018-09-30T18:23:27.996Z,96631.27
2018-09-30T18:28:22.602Z,96632.05
2018-09-30T18:33:17.348Z,96627.77
2018-09-30T18:38:11.941Z,96628.28
2018-09-30T18:43:06.770Z,96627.73
2018-09-30T18:48:01.274Z,96630.91
2018-09-30T18:52:55.948Z,96634.07
2018-09-30T18:57:50.470Z,96631.16
2018-09-30T19:02:45.040Z,96631.96
2018-09-30T19:07:39.637Z,96637.25
2018-09-30T19:12:34.323Z,96635.13
2018-09-30T19:17:28.844Z,96641.73
2018-09-30T19:22:23.477Z,96647.39
2018-09-30T19:27:17.926Z,96656.16
2018-09-30T19:32:12.409Z,96658.80
2018-09-30T19:37:06.999Z,96655.11
2018-09-30T19:42:01.505Z,96653.51
2018-09-30T19:46:56.023Z,96649.03
2018-09-30T19:51:50.612Z,96655.92
2018-09-30T19:56:45.120Z,96641.86
2018-09-30T20:01:39.801Z,96646.11
2018-09-30T20:06:34.336Z,96672.58
2018-09-30T20:11:28.898Z,96692.39
2018-09-30T20:16:23.960Z,96696.78
2018-09-30T20:21:18.618Z,96708.87
2018-09-30T20:26:13.132Z,96711.78
2018-09-30T20:31:07.819Z,96712.84
2018-09-30T20:36:02.329Z,96714.11
2018-09-30T20:40:57.127Z,96699.79
2018-09-30T20:45:52.059Z,96698.06
2018-09-30T20:50:47.171Z,96708.27
2018-09-30T20:55:41.742Z,96719.89
2018-09-30T21:00:36.349Z,96730.16
2018-09-30T21:05:50.505Z,96735.72
2018-09-30T21:10:45.063Z,96736.76
2018-09-30T21:15:39.634Z,96742.53
2018-09-30T21:20:34.148Z,96742.47
2018-09-30T21:25:28.832Z,96736.80
2018-09-30T21:30:23.537Z,96745.13
2018-09-30T21:35:18.133Z,96752.94
2018-09-30T21:40:12.585Z,96751.09
2018-09-30T21:45:07.147Z,96749.38
2018-09-30T21:50:01.749Z,96734.53
2018-09-30T21:54:56.274Z,96741.27
2018-09-30T21:59:50.768Z,96745.15
2018-09-30T22:04:45.221Z,96735.79
2018-09-30T22:09:39.669Z,96743.34
2018-09-30T22:14:34.216Z,96738.55
2018-09-30T22:19:28.669Z,96735.57
2018-09-30T22:24:23.121Z,96732.38
2018-09-30T22:29:17.590Z,96733.63
2018-09-30T22:34:12.079Z,96715.29
2018-09-30T22:39:08.172Z,96713.72
2018-09-30T22:44:02.784Z,96710.97
2018-09-30T22:48:57.232Z,96705.78
2018-09-30T22:53:51.872Z,96710.32
2018-09-30T22:58:46.363Z,96706.61
2018-09-30T23:03:40.804Z,96702.47
2018-09-30T23:08:35.291Z,96703.14
2018-09-30T23:13:29.857Z,96695.20
2018-09-30T23:18:24.503Z,96692.55
2018-09-30T23:23:18.952Z,96689.56
2018-09-30T23:28:13.420Z,96684.41
2018-09-30T23:33:07.933Z,96679.84
2018-09-30T23:38:02.635Z,96682.33
2018-09-30T23:42:57.126Z,96689.62
2018-09-30T23:47:51.789Z,96698.27
2018-09-30T23:52:46.308Z,96692.72
2018-09-30T23:57:40.878Z,96686.64
